sensor_id;sensor_type;location;lat;lon;timestamp;temperature;humidity
45008;DHT22;30743;52.008;5.644;2023-06-04T00:00:26;17.50;94.00
45008;DHT22;30743;52.008;5.644;2023-06-04T00:02:52;17.50;94.10
45008;DHT22;30743;52.008;5.644;2023-06-04T00:05:17;17.40;94.10
45008;DHT22;30743;52.008;5.644;2023-06-04T00:07:43;17.40;94.30
45008;DHT22;30743;52.008;5.644;2023-06-04T00:10:09;17.40;94.10
45008;DHT22;30743;52.008;5.644;2023-06-04T00:12:35;17.50;94.00
45008;DHT22;30743;52.008;5.644;2023-06-04T00:15:01;17.40;94.10
45008;DHT22;30743;52.008;5.644;2023-06-04T00:17:27;17.30;94.00
45008;DHT22;30743;52.008;5.644;2023-06-04T00:19:52;17.40;94.00
45008;DHT22;30743;52.008;5.644;2023-06-04T00:22:18;17.50;93.90
45008;DHT22;30743;52.008;5.644;2023-06-04T00:24:43;17.30;94.00
45008;DHT22;30743;52.008;5.644;2023-06-04T00:27:09;17.20;94.00
45008;DHT22;30743;52.008;5.644;2023-06-04T00:29:35;17.30;93.90
45008;DHT22;30743;52.008;5.644;2023-06-04T00:32:02;17.30;93.90
45008;DHT22;30743;52.008;5.644;2023-06-04T00:34:27;17.20;93.90
45008;DHT22;30743;52.008;5.644;2023-06-04T00:36:53;17.10;93.90
45008;DHT22;30743;52.008;5.644;2023-06-04T00:39:18;17.20;93.90
45008;DHT22;30743;52.008;5.644;2023-06-04T00:41:44;17.30;93.90
45008;DHT22;30743;52.008;5.644;2023-06-04T00:44:09;17.10;93.80
45008;DHT22;30743;52.008;5.644;2023-06-04T00:46:36;17.00;93.90
45008;DHT22;30743;52.008;5.644;2023-06-04T00:49:02;17.10;93.90
45008;DHT22;30743;52.008;5.644;2023-06-04T00:51:30;17.00;93.90
45008;DHT22;30743;52.008;5.644;2023-06-04T00:53:56;17.20;94.40
45008;DHT22;30743;52.008;5.644;2023-06-04T00:56:23;17.10;93.90
45008;DHT22;30743;52.008;5.644;2023-06-04T00:58:49;17.20;93.90
45008;DHT22;30743;52.008;5.644;2023-06-04T01:01:18;17.20;93.80
45008;DHT22;30743;52.008;5.644;2023-06-04T01:03:47;17.10;93.90
45008;DHT22;30743;52.008;5.644;2023-06-04T01:08:48;17.20;93.60
45008;DHT22;30743;52.008;5.644;2023-06-04T01:11:14;17.30;93.80
45008;DHT22;30743;52.008;5.644;2023-06-04T01:13:40;17.20;93.80
45008;DHT22;30743;52.008;5.644;2023-06-04T01:16:05;17.10;93.80
45008;DHT22;30743;52.008;5.644;2023-06-04T01:18:33;17.00;94.00
45008;DHT22;30743;52.008;5.644;2023-06-04T01:21:04;17.00;93.90
45008;DHT22;30743;52.008;5.644;2023-06-04T01:23:51;17.00;93.90
45008;DHT22;30743;52.008;5.644;2023-06-04T01:26:25;16.90;94.00
45008;DHT22;30743;52.008;5.644;2023-06-04T01:28:51;16.90;94.00
45008;DHT22;30743;52.008;5.644;2023-06-04T01:31:17;17.00;93.80
45008;DHT22;30743;52.008;5.644;2023-06-04T01:33:43;16.90;93.90
45008;DHT22;30743;52.008;5.644;2023-06-04T01:36:08;16.90;94.00
45008;DHT22;30743;52.008;5.644;2023-06-04T01:38:35;16.80;94.00
45008;DHT22;30743;52.008;5.644;2023-06-04T01:41:01;16.70;94.10
45008;DHT22;30743;52.008;5.644;2023-06-04T01:43:28;16.80;94.00
45008;DHT22;30743;52.008;5.644;2023-06-04T01:45:54;16.90;93.80
45008;DHT22;30743;52.008;5.644;2023-06-04T01:48:19;16.80;93.90
45008;DHT22;30743;52.008;5.644;2023-06-04T01:50:45;16.80;94.00
45008;DHT22;30743;52.008;5.644;2023-06-04T01:53:10;16.70;94.20
45008;DHT22;30743;52.008;5.644;2023-06-04T01:55:36;16.60;94.20
45008;DHT22;30743;52.008;5.644;2023-06-04T01:58:03;16.80;94.10
45008;DHT22;30743;52.008;5.644;2023-06-04T02:00:28;16.60;94.10
45008;DHT22;30743;52.008;5.644;2023-06-04T02:02:54;16.50;94.30
45008;DHT22;30743;52.008;5.644;2023-06-04T02:05:21;16.60;94.30
45008;DHT22;30743;52.008;5.644;2023-06-04T02:07:47;16.60;94.30
45008;DHT22;30743;52.008;5.644;2023-06-04T02:10:15;16.60;94.30
45008;DHT22;30743;52.008;5.644;2023-06-04T02:12:52;16.60;94.20
45008;DHT22;30743;52.008;5.644;2023-06-04T02:15:18;16.50;94.20
45008;DHT22;30743;52.008;5.644;2023-06-04T02:17:43;16.70;94.30
45008;DHT22;30743;52.008;5.644;2023-06-04T02:20:11;16.60;94.10
45008;DHT22;30743;52.008;5.644;2023-06-04T02:22:37;16.60;94.10
45008;DHT22;30743;52.008;5.644;2023-06-04T02:25:04;16.60;94.10
45008;DHT22;30743;52.008;5.644;2023-06-04T02:27:29;16.70;93.90
45008;DHT22;30743;52.008;5.644;2023-06-04T02:29:55;16.70;94.10
45008;DHT22;30743;52.008;5.644;2023-06-04T02:32:21;16.70;93.90
45008;DHT22;30743;52.008;5.644;2023-06-04T02:34:46;16.70;93.90
45008;DHT22;30743;52.008;5.644;2023-06-04T02:37:12;16.70;94.30
45008;DHT22;30743;52.008;5.644;2023-06-04T02:39:37;17.70;94.20
45008;DHT22;30743;52.008;5.644;2023-06-04T02:42:03;16.70;93.90
45008;DHT22;30743;52.008;5.644;2023-06-04T02:44:28;16.60;93.80
45008;DHT22;30743;52.008;5.644;2023-06-04T02:46:55;17.90;94.20
45008;DHT22;30743;52.008;5.644;2023-06-04T02:49:21;16.40;94.00
45008;DHT22;30743;52.008;5.644;2023-06-04T02:51:46;16.30;94.20
45008;DHT22;30743;52.008;5.644;2023-06-04T02:54:12;16.20;94.30
45008;DHT22;30743;52.008;5.644;2023-06-04T02:56:38;16.20;94.40
45008;DHT22;30743;52.008;5.644;2023-06-04T02:59:04;16.20;94.40
45008;DHT22;30743;52.008;5.644;2023-06-04T03:01:30;16.20;94.40
45008;DHT22;30743;52.008;5.644;2023-06-04T03:03:56;16.00;94.90
45008;DHT22;30743;52.008;5.644;2023-06-04T03:06:24;15.90;94.60
45008;DHT22;30743;52.008;5.644;2023-06-04T03:08:52;15.90;94.80
45008;DHT22;30743;52.008;5.644;2023-06-04T03:11:18;15.90;94.80
45008;DHT22;30743;52.008;5.644;2023-06-04T03:13:46;15.90;94.70
45008;DHT22;30743;52.008;5.644;2023-06-04T03:16:12;15.80;94.90
45008;DHT22;30743;52.008;5.644;2023-06-04T03:18:41;16.00;94.80
45008;DHT22;30743;52.008;5.644;2023-06-04T03:21:07;16.20;94.60
45008;DHT22;30743;52.008;5.644;2023-06-04T03:23:33;16.30;94.50
45008;DHT22;30743;52.008;5.644;2023-06-04T03:26:02;16.50;94.30
45008;DHT22;30743;52.008;5.644;2023-06-04T03:28:28;16.70;94.20
45008;DHT22;30743;52.008;5.644;2023-06-04T03:30:54;16.90;94.00
45008;DHT22;30743;52.008;5.644;2023-06-04T03:33:19;17.00;94.20
45008;DHT22;30743;52.008;5.644;2023-06-04T03:35:45;17.10;93.80
45008;DHT22;30743;52.008;5.644;2023-06-04T03:38:11;17.20;93.80
45008;DHT22;30743;52.008;5.644;2023-06-04T03:40:36;17.00;93.70
45008;DHT22;30743;52.008;5.644;2023-06-04T03:43:02;17.00;93.70
45008;DHT22;30743;52.008;5.644;2023-06-04T03:45:30;17.00;93.70
45008;DHT22;30743;52.008;5.644;2023-06-04T03:47:55;17.00;93.80
45008;DHT22;30743;52.008;5.644;2023-06-04T03:50:21;16.90;93.90
45008;DHT22;30743;52.008;5.644;2023-06-04T03:52:50;16.80;94.10
45008;DHT22;30743;52.008;5.644;2023-06-04T03:55:15;16.50;94.40
45008;DHT22;30743;52.008;5.644;2023-06-04T03:57:41;16.20;94.70
45008;DHT22;30743;52.008;5.644;2023-06-04T04:00:08;16.10;95.00
45008;DHT22;30743;52.008;5.644;2023-06-04T04:02:37;15.90;95.30
45008;DHT22;30743;52.008;5.644;2023-06-04T04:05:03;15.80;95.70
45008;DHT22;30743;52.008;5.644;2023-06-04T04:07:29;15.60;95.80
45008;DHT22;30743;52.008;5.644;2023-06-04T04:09:54;15.70;95.90
45008;DHT22;30743;52.008;5.644;2023-06-04T04:12:20;15.80;95.90
45008;DHT22;30743;52.008;5.644;2023-06-04T04:14:45;15.70;96.00
45008;DHT22;30743;52.008;5.644;2023-06-04T04:17:13;15.80;96.00
45008;DHT22;30743;52.008;5.644;2023-06-04T04:19:38;15.90;96.00
45008;DHT22;30743;52.008;5.644;2023-06-04T04:22:04;15.90;96.00
45008;DHT22;30743;52.008;5.644;2023-06-04T04:24:30;16.00;95.90
45008;DHT22;30743;52.008;5.644;2023-06-04T04:26:57;16.20;95.80
45008;DHT22;30743;52.008;5.644;2023-06-04T04:29:24;16.30;95.80
45008;DHT22;30743;52.008;5.644;2023-06-04T04:31:53;16.40;95.80
45008;DHT22;30743;52.008;5.644;2023-06-04T04:34:22;16.30;95.70
45008;DHT22;30743;52.008;5.644;2023-06-04T04:36:49;16.50;95.80
45008;DHT22;30743;52.008;5.644;2023-06-04T04:39:24;16.60;95.90
45008;DHT22;30743;52.008;5.644;2023-06-04T04:41:50;16.60;95.90
45008;DHT22;30743;52.008;5.644;2023-06-04T04:44:16;16.80;96.10
45008;DHT22;30743;52.008;5.644;2023-06-04T04:46:41;16.80;95.70
45008;DHT22;30743;52.008;5.644;2023-06-04T04:49:07;16.80;95.80
45008;DHT22;30743;52.008;5.644;2023-06-04T04:51:33;17.00;95.70
45008;DHT22;30743;52.008;5.644;2023-06-04T04:53:58;17.10;95.60
45008;DHT22;30743;52.008;5.644;2023-06-04T04:56:26;17.00;95.70
45008;DHT22;30743;52.008;5.644;2023-06-04T04:58:52;17.10;95.80
45008;DHT22;30743;52.008;5.644;2023-06-04T05:01:17;16.80;95.80
45008;DHT22;30743;52.008;5.644;2023-06-04T05:03:43;16.90;95.90
45008;DHT22;30743;52.008;5.644;2023-06-04T05:06:08;16.90;95.90
45008;DHT22;30743;52.008;5.644;2023-06-04T05:08:34;16.90;96.00
45008;DHT22;30743;52.008;5.644;2023-06-04T05:10:59;17.00;95.70
45008;DHT22;30743;52.008;5.644;2023-06-04T05:13:25;16.90;96.40
45008;DHT22;30743;52.008;5.644;2023-06-04T05:15:51;16.80;96.30
45008;DHT22;30743;52.008;5.644;2023-06-04T05:18:18;16.90;96.50
45008;DHT22;30743;52.008;5.644;2023-06-04T05:20:48;16.80;96.60
45008;DHT22;30743;52.008;5.644;2023-06-04T05:23:14;16.90;96.40
45008;DHT22;30743;52.008;5.644;2023-06-04T05:25:40;17.00;96.30
45008;DHT22;30743;52.008;5.644;2023-06-04T05:28:06;17.10;96.50
45008;DHT22;30743;52.008;5.644;2023-06-04T05:30:32;17.20;96.70
45008;DHT22;30743;52.008;5.644;2023-06-04T05:32:59;17.20;96.80
45008;DHT22;30743;52.008;5.644;2023-06-04T05:35:24;17.30;96.30
45008;DHT22;30743;52.008;5.644;2023-06-04T05:37:50;17.40;96.30
45008;DHT22;30743;52.008;5.644;2023-06-04T05:40:19;17.60;96.70
45008;DHT22;30743;52.008;5.644;2023-06-04T05:42:46;17.60;96.10
45008;DHT22;30743;52.008;5.644;2023-06-04T05:45:12;17.60;96.60
45008;DHT22;30743;52.008;5.644;2023-06-04T05:47:37;17.80;96.70
45008;DHT22;30743;52.008;5.644;2023-06-04T05:50:03;18.00;96.70
45008;DHT22;30743;52.008;5.644;2023-06-04T05:52:29;18.20;95.80
45008;DHT22;30743;52.008;5.644;2023-06-04T05:54:54;18.30;96.40
45008;DHT22;30743;52.008;5.644;2023-06-04T05:57:20;18.10;96.50
45008;DHT22;30743;52.008;5.644;2023-06-04T05:59:46;18.40;95.80
45008;DHT22;30743;52.008;5.644;2023-06-04T06:02:11;18.60;95.90
45008;DHT22;30743;52.008;5.644;2023-06-04T06:04:38;18.80;95.90
45008;DHT22;30743;52.008;5.644;2023-06-04T06:07:04;19.00;95.70
45008;DHT22;30743;52.008;5.644;2023-06-04T06:09:30;19.20;95.50
45008;DHT22;30743;52.008;5.644;2023-06-04T06:11:55;19.10;95.00
45008;DHT22;30743;52.008;5.644;2023-06-04T06:14:21;19.10;94.80
45008;DHT22;30743;52.008;5.644;2023-06-04T06:16:48;19.20;94.40
45008;DHT22;30743;52.008;5.644;2023-06-04T06:19:14;19.40;95.20
45008;DHT22;30743;52.008;5.644;2023-06-04T06:21:39;19.60;94.80
45008;DHT22;30743;52.008;5.644;2023-06-04T06:24:05;19.40;94.70
45008;DHT22;30743;52.008;5.644;2023-06-04T06:26:31;19.40;94.60
45008;DHT22;30743;52.008;5.644;2023-06-04T06:28:57;19.30;94.80
45008;DHT22;30743;52.008;5.644;2023-06-04T06:31:22;19.30;94.80
45008;DHT22;30743;52.008;5.644;2023-06-04T06:33:48;19.60;94.30
45008;DHT22;30743;52.008;5.644;2023-06-04T06:36:13;19.70;94.10
45008;DHT22;30743;52.008;5.644;2023-06-04T06:38:39;19.80;93.60
45008;DHT22;30743;52.008;5.644;2023-06-04T06:41:05;19.80;93.60
45008;DHT22;30743;52.008;5.644;2023-06-04T06:43:31;20.00;94.00
45008;DHT22;30743;52.008;5.644;2023-06-04T06:45:57;20.10;93.10
45008;DHT22;30743;52.008;5.644;2023-06-04T06:48:23;20.30;92.80
45008;DHT22;30743;52.008;5.644;2023-06-04T06:50:48;20.40;92.50
45008;DHT22;30743;52.008;5.644;2023-06-04T06:53:14;20.40;92.00
45008;DHT22;30743;52.008;5.644;2023-06-04T06:55:40;20.60;92.70
45008;DHT22;30743;52.008;5.644;2023-06-04T06:58:05;20.60;92.10
45008;DHT22;30743;52.008;5.644;2023-06-04T07:00:31;21.00;92.10
45008;DHT22;30743;52.008;5.644;2023-06-04T07:02:56;20.90;92.70
45008;DHT22;30743;52.008;5.644;2023-06-04T07:05:22;21.00;93.30
45008;DHT22;30743;52.008;5.644;2023-06-04T07:07:47;21.20;91.90
45008;DHT22;30743;52.008;5.644;2023-06-04T07:10:13;21.40;93.30
45008;DHT22;30743;52.008;5.644;2023-06-04T07:12:39;21.40;93.40
45008;DHT22;30743;52.008;5.644;2023-06-04T07:15:06;21.80;92.20
45008;DHT22;30743;52.008;5.644;2023-06-04T07:17:33;22.00;92.40
45008;DHT22;30743;52.008;5.644;2023-06-04T07:19:59;22.20;91.70
45008;DHT22;30743;52.008;5.644;2023-06-04T07:22:26;22.20;92.70
45008;DHT22;30743;52.008;5.644;2023-06-04T07:24:51;22.40;92.00
45008;DHT22;30743;52.008;5.644;2023-06-04T07:27:18;22.40;91.00
45008;DHT22;30743;52.008;5.644;2023-06-04T07:29:44;22.50;91.70
45008;DHT22;30743;52.008;5.644;2023-06-04T07:32:10;22.30;91.50
45008;DHT22;30743;52.008;5.644;2023-06-04T07:34:38;22.40;92.30
45008;DHT22;30743;52.008;5.644;2023-06-04T07:37:04;22.40;91.80
45008;DHT22;30743;52.008;5.644;2023-06-04T07:39:29;22.60;91.10
45008;DHT22;30743;52.008;5.644;2023-06-04T07:41:55;22.90;89.60
45008;DHT22;30743;52.008;5.644;2023-06-04T07:44:20;22.90;90.70
45008;DHT22;30743;52.008;5.644;2023-06-04T07:46:46;23.20;90.90
45008;DHT22;30743;52.008;5.644;2023-06-04T07:49:11;23.30;89.70
45008;DHT22;30743;52.008;5.644;2023-06-04T07:51:37;23.60;90.40
45008;DHT22;30743;52.008;5.644;2023-06-04T07:54:03;23.90;89.40
45008;DHT22;30743;52.008;5.644;2023-06-04T07:56:28;23.90;90.00
45008;DHT22;30743;52.008;5.644;2023-06-04T07:58:54;23.90;88.50
45008;DHT22;30743;52.008;5.644;2023-06-04T08:01:20;23.80;90.00
45008;DHT22;30743;52.008;5.644;2023-06-04T08:03:46;23.70;90.10
45008;DHT22;30743;52.008;5.644;2023-06-04T08:06:12;23.90;89.10
45008;DHT22;30743;52.008;5.644;2023-06-04T08:08:42;24.20;87.90
45008;DHT22;30743;52.008;5.644;2023-06-04T08:11:11;24.50;88.90
45008;DHT22;30743;52.008;5.644;2023-06-04T08:13:36;24.60;88.40
45008;DHT22;30743;52.008;5.644;2023-06-04T08:16:01;24.80;85.10
45008;DHT22;30743;52.008;5.644;2023-06-04T08:18:27;25.10;87.70
45008;DHT22;30743;52.008;5.644;2023-06-04T08:20:54;25.00;87.50
45008;DHT22;30743;52.008;5.644;2023-06-04T08:23:19;24.70;87.10
45008;DHT22;30743;52.008;5.644;2023-06-04T08:25:45;24.80;86.60
45008;DHT22;30743;52.008;5.644;2023-06-04T08:28:12;25.00;87.50
45008;DHT22;30743;52.008;5.644;2023-06-04T08:30:38;25.10;87.40
45008;DHT22;30743;52.008;5.644;2023-06-04T08:33:04;28.00;86.20
45008;DHT22;30743;52.008;5.644;2023-06-04T08:35:30;25.60;83.70
45008;DHT22;30743;52.008;5.644;2023-06-04T08:37:55;25.50;86.00
45008;DHT22;30743;52.008;5.644;2023-06-04T08:40:21;25.40;86.60
45008;DHT22;30743;52.008;5.644;2023-06-04T08:42:47;25.30;85.30
45008;DHT22;30743;52.008;5.644;2023-06-04T08:45:14;25.20;83.90
45008;DHT22;30743;52.008;5.644;2023-06-04T08:47:44;25.50;85.70
45008;DHT22;30743;52.008;5.644;2023-06-04T08:50:16;25.40;84.00
45008;DHT22;30743;52.008;5.644;2023-06-04T08:52:42;25.80;83.80
45008;DHT22;30743;52.008;5.644;2023-06-04T08:55:09;25.90;81.30
45008;DHT22;30743;52.008;5.644;2023-06-04T08:57:36;26.00;79.00
45008;DHT22;30743;52.008;5.644;2023-06-04T09:00:03;26.40;81.10
45008;DHT22;30743;52.008;5.644;2023-06-04T09:02:31;26.50;81.30
45008;DHT22;30743;52.008;5.644;2023-06-04T09:04:56;26.80;79.40
45008;DHT22;30743;52.008;5.644;2023-06-04T09:07:22;27.00;77.50
45008;DHT22;30743;52.008;5.644;2023-06-04T09:09:49;27.20;80.60
45008;DHT22;30743;52.008;5.644;2023-06-04T09:12:21;26.90;82.80
45008;DHT22;30743;52.008;5.644;2023-06-04T09:14:47;27.00;79.00
45008;DHT22;30743;52.008;5.644;2023-06-04T09:17:13;27.00;72.00
45008;DHT22;30743;52.008;5.644;2023-06-04T09:19:40;27.00;77.30
45008;DHT22;30743;52.008;5.644;2023-06-04T09:22:05;27.10;77.70
45008;DHT22;30743;52.008;5.644;2023-06-04T09:24:40;27.40;79.00
45008;DHT22;30743;52.008;5.644;2023-06-04T09:27:19;27.70;78.90
45008;DHT22;30743;52.008;5.644;2023-06-04T09:29:52;27.90;76.80
45008;DHT22;30743;52.008;5.644;2023-06-04T09:32:28;28.20;72.50
45008;DHT22;30743;52.008;5.644;2023-06-04T09:34:55;28.60;70.30
45008;DHT22;30743;52.008;5.644;2023-06-04T09:37:22;28.60;77.50
45008;DHT22;30743;52.008;5.644;2023-06-04T09:39:57;28.90;71.60
45008;DHT22;30743;52.008;5.644;2023-06-04T09:42:23;30.00;71.00
45008;DHT22;30743;52.008;5.644;2023-06-04T09:44:49;29.10;70.10
45008;DHT22;30743;52.008;5.644;2023-06-04T09:47:15;29.10;72.30
45008;DHT22;30743;52.008;5.644;2023-06-04T09:49:45;28.90;67.70
45008;DHT22;30743;52.008;5.644;2023-06-04T09:52:11;28.30;68.50
45008;DHT22;30743;52.008;5.644;2023-06-04T09:54:38;28.60;69.80
45008;DHT22;30743;52.008;5.644;2023-06-04T09:57:13;28.90;72.10
45008;DHT22;30743;52.008;5.644;2023-06-04T09:59:39;29.20;68.70
45008;DHT22;30743;52.008;5.644;2023-06-04T10:02:08;29.00;70.40
45008;DHT22;30743;52.008;5.644;2023-06-04T10:04:35;28.80;67.00
45008;DHT22;30743;52.008;5.644;2023-06-04T10:07:04;28.80;67.80
45008;DHT22;30743;52.008;5.644;2023-06-04T10:09:30;29.10;70.70
45008;DHT22;30743;52.008;5.644;2023-06-04T10:11:58;28.90;70.60
45008;DHT22;30743;52.008;5.644;2023-06-04T10:14:30;28.60;67.40
45008;DHT22;30743;52.008;5.644;2023-06-04T10:16:57;28.80;65.30
45008;DHT22;30743;52.008;5.644;2023-06-04T10:19:24;28.60;68.70
45008;DHT22;30743;52.008;5.644;2023-06-04T10:21:50;28.80;67.00
45008;DHT22;30743;52.008;5.644;2023-06-04T10:24:16;29.20;71.10
45008;DHT22;30743;52.008;5.644;2023-06-04T10:26:42;29.10;68.50
45008;DHT22;30743;52.008;5.644;2023-06-04T10:29:08;29.10;64.80
45008;DHT22;30743;52.008;5.644;2023-06-04T10:31:36;28.80;69.20
45008;DHT22;30743;52.008;5.644;2023-06-04T10:34:02;28.80;72.60
45008;DHT22;30743;52.008;5.644;2023-06-04T10:36:28;28.40;66.90
45008;DHT22;30743;52.008;5.644;2023-06-04T10:38:54;28.40;69.00
45008;DHT22;30743;52.008;5.644;2023-06-04T10:41:21;28.80;69.90
45008;DHT22;30743;52.008;5.644;2023-06-04T10:43:49;29.20;66.00
45008;DHT22;30743;52.008;5.644;2023-06-04T10:46:16;29.50;69.90
45008;DHT22;30743;52.008;5.644;2023-06-04T10:49:00;29.50;67.20
45008;DHT22;30743;52.008;5.644;2023-06-04T10:51:33;29.40;68.70
45008;DHT22;30743;52.008;5.644;2023-06-04T10:54:00;29.20;66.80
45008;DHT22;30743;52.008;5.644;2023-06-04T10:56:27;29.20;68.20
45008;DHT22;30743;52.008;5.644;2023-06-04T10:58:52;29.40;67.90
45008;DHT22;30743;52.008;5.644;2023-06-04T11:03:50;30.00;68.00
45008;DHT22;30743;52.008;5.644;2023-06-04T11:06:16;29.90;65.30
45008;DHT22;30743;52.008;5.644;2023-06-04T11:08:42;29.90;72.10
45008;DHT22;30743;52.008;5.644;2023-06-04T11:11:12;29.40;66.50
45008;DHT22;30743;52.008;5.644;2023-06-04T11:13:39;29.10;65.20
45008;DHT22;30743;52.008;5.644;2023-06-04T11:16:17;29.20;67.70
45008;DHT22;30743;52.008;5.644;2023-06-04T11:18:43;29.70;67.10
45008;DHT22;30743;52.008;5.644;2023-06-04T11:21:09;29.90;71.00
45008;DHT22;30743;52.008;5.644;2023-06-04T11:23:40;29.80;68.60
45008;DHT22;30743;52.008;5.644;2023-06-04T11:26:06;29.70;69.60
45008;DHT22;30743;52.008;5.644;2023-06-04T11:28:31;29.50;69.70
45008;DHT22;30743;52.008;5.644;2023-06-04T11:31:01;28.80;73.10
45008;DHT22;30743;52.008;5.644;2023-06-04T11:33:46;29.00;70.80
45008;DHT22;30743;52.008;5.644;2023-06-04T11:36:28;29.10;71.30
45008;DHT22;30743;52.008;5.644;2023-06-04T11:38:58;29.20;70.10
45008;DHT22;30743;52.008;5.644;2023-06-04T11:41:27;29.50;68.60
45008;DHT22;30743;52.008;5.644;2023-06-04T11:43:55;29.60;68.60
45008;DHT22;30743;52.008;5.644;2023-06-04T11:46:21;30.10;72.90
45008;DHT22;30743;52.008;5.644;2023-06-04T11:48:47;30.40;66.20
45008;DHT22;30743;52.008;5.644;2023-06-04T11:51:13;30.30;69.00
45008;DHT22;30743;52.008;5.644;2023-06-04T11:53:39;29.50;70.50
45008;DHT22;30743;52.008;5.644;2023-06-04T11:56:05;29.50;69.70
45008;DHT22;30743;52.008;5.644;2023-06-04T11:58:31;29.90;66.90
45008;DHT22;30743;52.008;5.644;2023-06-04T12:00:57;30.30;71.00
45008;DHT22;30743;52.008;5.644;2023-06-04T12:03:38;30.20;69.40
45008;DHT22;30743;52.008;5.644;2023-06-04T12:06:20;29.90;69.80
45008;DHT22;30743;52.008;5.644;2023-06-04T12:08:55;30.00;71.60
45008;DHT22;30743;52.008;5.644;2023-06-04T12:11:24;29.90;71.00
45008;DHT22;30743;52.008;5.644;2023-06-04T12:13:52;29.70;70.00
45008;DHT22;30743;52.008;5.644;2023-06-04T12:16:18;29.90;70.70
45008;DHT22;30743;52.008;5.644;2023-06-04T12:18:44;30.10;73.20
45008;DHT22;30743;52.008;5.644;2023-06-04T12:21:24;30.40;70.60
45008;DHT22;30743;52.008;5.644;2023-06-04T12:24:04;30.20;71.60
45008;DHT22;30743;52.008;5.644;2023-06-04T12:26:31;30.30;70.80
45008;DHT22;30743;52.008;5.644;2023-06-04T12:29:01;30.80;69.80
45008;DHT22;30743;52.008;5.644;2023-06-04T12:31:27;30.90;71.50
45008;DHT22;30743;52.008;5.644;2023-06-04T12:33:58;30.30;71.20
45008;DHT22;30743;52.008;5.644;2023-06-04T12:36:24;29.70;68.40
45008;DHT22;30743;52.008;5.644;2023-06-04T12:38:50;29.50;71.90
45008;DHT22;30743;52.008;5.644;2023-06-04T12:41:15;29.40;73.90
45008;DHT22;30743;52.008;5.644;2023-06-04T12:43:41;29.40;71.10
45008;DHT22;30743;52.008;5.644;2023-06-04T12:46:06;29.40;73.30
45008;DHT22;30743;52.008;5.644;2023-06-04T12:48:32;29.30;71.70
45008;DHT22;30743;52.008;5.644;2023-06-04T12:50:58;29.40;71.60
45008;DHT22;30743;52.008;5.644;2023-06-04T12:53:24;30.00;71.30
45008;DHT22;30743;52.008;5.644;2023-06-04T12:55:50;30.30;69.20
45008;DHT22;30743;52.008;5.644;2023-06-04T12:58:16;30.60;68.50
45008;DHT22;30743;52.008;5.644;2023-06-04T13:00:42;30.60;68.70
45008;DHT22;30743;52.008;5.644;2023-06-04T13:03:08;30.60;67.60
45008;DHT22;30743;52.008;5.644;2023-06-04T13:05:34;30.90;69.80
45008;DHT22;30743;52.008;5.644;2023-06-04T13:08:00;30.60;71.80
45008;DHT22;30743;52.008;5.644;2023-06-04T13:10:27;31.10;67.90
45008;DHT22;30743;52.008;5.644;2023-06-04T13:12:52;31.20;67.90
45008;DHT22;30743;52.008;5.644;2023-06-04T13:15:18;31.30;71.00
45008;DHT22;30743;52.008;5.644;2023-06-04T13:17:44;31.50;67.50
45008;DHT22;30743;52.008;5.644;2023-06-04T13:20:10;31.50;67.00
45008;DHT22;30743;52.008;5.644;2023-06-04T13:22:35;31.00;69.40
45008;DHT22;30743;52.008;5.644;2023-06-04T13:25:01;30.70;66.60
45008;DHT22;30743;52.008;5.644;2023-06-04T13:27:27;31.00;67.50
45008;DHT22;30743;52.008;5.644;2023-06-04T13:29:52;31.10;71.80
45008;DHT22;30743;52.008;5.644;2023-06-04T13:32:18;31.30;66.60
45008;DHT22;30743;52.008;5.644;2023-06-04T13:34:44;31.50;67.90
45008;DHT22;30743;52.008;5.644;2023-06-04T13:37:09;31.20;67.70
45008;DHT22;30743;52.008;5.644;2023-06-04T13:39:38;31.20;70.10
45008;DHT22;30743;52.008;5.644;2023-06-04T13:42:04;31.20;68.30
45008;DHT22;30743;52.008;5.644;2023-06-04T13:44:30;31.20;70.20
45008;DHT22;30743;52.008;5.644;2023-06-04T13:46:59;31.10;68.30
45008;DHT22;30743;52.008;5.644;2023-06-04T13:49:25;31.30;67.40
45008;DHT22;30743;52.008;5.644;2023-06-04T13:51:50;31.70;68.20
45008;DHT22;30743;52.008;5.644;2023-06-04T13:54:16;31.30;66.70
45008;DHT22;30743;52.008;5.644;2023-06-04T13:56:41;31.30;69.00
45008;DHT22;30743;52.008;5.644;2023-06-04T13:59:07;31.30;67.30
45008;DHT22;30743;52.008;5.644;2023-06-04T14:01:32;32.00;71.90
45008;DHT22;30743;52.008;5.644;2023-06-04T14:03:58;30.60;70.10
45008;DHT22;30743;52.008;5.644;2023-06-04T14:06:24;30.70;70.00
45008;DHT22;30743;52.008;5.644;2023-06-04T14:08:49;30.60;69.50
45008;DHT22;30743;52.008;5.644;2023-06-04T14:11:15;30.70;70.60
45008;DHT22;30743;52.008;5.644;2023-06-04T14:13:40;30.20;71.30
45008;DHT22;30743;52.008;5.644;2023-06-04T14:16:10;30.10;72.40
45008;DHT22;30743;52.008;5.644;2023-06-04T14:18:35;30.30;69.80
45008;DHT22;30743;52.008;5.644;2023-06-04T14:21:01;30.30;68.30
45008;DHT22;30743;52.008;5.644;2023-06-04T14:23:27;30.00;69.30
45008;DHT22;30743;52.008;5.644;2023-06-04T14:25:52;30.20;67.60
45008;DHT22;30743;52.008;5.644;2023-06-04T14:28:18;29.90;68.10
45008;DHT22;30743;52.008;5.644;2023-06-04T14:30:46;29.80;69.30
45008;DHT22;30743;52.008;5.644;2023-06-04T14:33:11;29.50;71.80
45008;DHT22;30743;52.008;5.644;2023-06-04T14:35:37;29.80;71.20
45008;DHT22;30743;52.008;5.644;2023-06-04T14:38:04;29.60;68.00
45008;DHT22;30743;52.008;5.644;2023-06-04T14:40:30;29.70;73.10
45008;DHT22;30743;52.008;5.644;2023-06-04T14:42:55;30.20;68.60
45008;DHT22;30743;52.008;5.644;2023-06-04T14:45:22;30.10;70.70
45008;DHT22;30743;52.008;5.644;2023-06-04T14:47:48;30.20;69.40
45008;DHT22;30743;52.008;5.644;2023-06-04T14:50:17;30.00;69.90
45008;DHT22;30743;52.008;5.644;2023-06-04T14:52:43;29.90;74.00
45008;DHT22;30743;52.008;5.644;2023-06-04T14:55:09;30.30;71.30
45008;DHT22;30743;52.008;5.644;2023-06-04T14:57:35;29.00;67.60
45008;DHT22;30743;52.008;5.644;2023-06-04T15:00:00;28.90;70.00
45008;DHT22;30743;52.008;5.644;2023-06-04T15:02:27;28.70;73.50
45008;DHT22;30743;52.008;5.644;2023-06-04T15:04:55;29.00;72.60
45008;DHT22;30743;52.008;5.644;2023-06-04T15:07:22;29.20;72.30
45008;DHT22;30743;52.008;5.644;2023-06-04T15:09:47;29.50;71.40
45008;DHT22;30743;52.008;5.644;2023-06-04T15:12:14;29.20;72.10
45008;DHT22;30743;52.008;5.644;2023-06-04T15:14:41;29.00;71.00
45008;DHT22;30743;52.008;5.644;2023-06-04T15:17:07;29.00;71.50
45008;DHT22;30743;52.008;5.644;2023-06-04T15:19:33;29.00;71.30
45008;DHT22;30743;52.008;5.644;2023-06-04T15:21:58;29.10;68.80
45008;DHT22;30743;52.008;5.644;2023-06-04T15:24:24;29.50;72.40
45008;DHT22;30743;52.008;5.644;2023-06-04T15:26:50;29.40;69.70
45008;DHT22;30743;52.008;5.644;2023-06-04T15:29:15;29.00;70.00
45008;DHT22;30743;52.008;5.644;2023-06-04T15:31:41;29.10;71.00